createdAt,value
2023-04-11T00:02:16.218Z,11.80
2023-04-11T00:04:44.686Z,11.93
2023-04-11T00:07:12.815Z,13.90
2023-04-11T00:09:42.258Z,12.53
2023-04-11T00:12:10.372Z,12.60
2023-04-11T00:14:38.523Z,10.67
2023-04-11T00:17:10.217Z,12.60
2023-04-11T00:19:38.320Z,11.30
2023-04-11T00:22:06.497Z,12.77
2023-04-11T00:24:35.014Z,11.10
2023-04-11T00:27:04.541Z,10.77
2023-04-11T00:29:36.142Z,10.27
2023-04-11T00:32:04.968Z,10.27
2023-04-11T00:34:34.295Z,10.57
2023-04-11T00:37:03.332Z,10.80
2023-04-11T00:39:35.134Z,10.87
2023-04-11T00:42:09.779Z,11.27
2023-04-11T00:44:40.420Z,10.90
2023-04-11T00:47:09.982Z,10.67
2023-04-11T00:49:38.535Z,13.47
2023-04-11T00:52:07.522Z,11.70
2023-04-11T00:54:35.787Z,11.33
2023-04-11T00:57:06.812Z,11.23
2023-04-11T00:59:37.325Z,10.70
2023-04-11T01:02:06.041Z,10.80
2023-04-11T01:04:34.113Z,13.10
2023-04-11T01:07:06.469Z,9.77
2023-04-11T01:09:36.713Z,10.83
2023-04-11T01:12:06.927Z,10.77
2023-04-11T01:14:36.262Z,11.80
2023-04-11T01:17:04.444Z,11.03
2023-04-11T01:19:32.839Z,10.67
2023-04-11T01:22:03.059Z,11.80
2023-04-11T01:24:33.268Z,12.40
2023-04-11T01:27:02.544Z,12.33
2023-04-11T01:29:32.205Z,10.33
2023-04-11T01:32:00.242Z,12.93
2023-04-11T01:34:29.643Z,11.73
2023-04-11T01:36:58.138Z,11.97
2023-04-11T01:39:26.182Z,12.90
2023-04-11T01:41:58.610Z,11.80
2023-04-11T01:44:27.536Z,11.10
2023-04-11T01:46:56.043Z,11.37
2023-04-11T01:49:26.150Z,11.87
2023-04-11T01:51:54.310Z,14.23
2023-04-11T01:54:22.285Z,9.63
2023-04-11T01:56:50.562Z,12.30
2023-04-11T01:59:20.089Z,12.13
2023-04-11T02:01:48.239Z,10.60
2023-04-11T02:04:16.494Z,11.13
2023-04-11T02:06:44.690Z,12.00
2023-04-11T02:09:12.921Z,11.63
2023-04-11T02:11:41.807Z,12.07
2023-04-11T02:14:10.086Z,11.80
2023-04-11T02:16:52.553Z,11.80
2023-04-11T02:19:21.481Z,12.70
2023-04-11T02:21:49.840Z,12.47
2023-04-11T02:24:17.796Z,12.50
2023-04-11T02:26:45.791Z,11.53
2023-04-11T02:29:13.726Z,14.40
2023-04-11T02:31:43.034Z,15.03
2023-04-11T02:34:12.615Z,15.93
2023-04-11T02:36:41.856Z,12.93
2023-04-11T02:39:10.184Z,14.57
2023-04-11T02:41:40.078Z,14.87
2023-04-11T02:44:08.192Z,13.10
2023-04-11T02:46:36.604Z,14.50
2023-04-11T02:49:05.064Z,12.97
2023-04-11T02:51:34.862Z,14.17
2023-04-11T02:54:03.280Z,13.03
2023-04-11T02:56:31.721Z,14.73
2023-04-11T02:58:59.628Z,14.50
2023-04-11T03:01:28.264Z,13.27
2023-04-11T03:03:56.372Z,13.97
2023-04-11T03:06:24.696Z,14.47
2023-04-11T03:08:54.570Z,13.70
2023-04-11T03:11:23.199Z,15.07
2023-04-11T03:13:52.482Z,15.50
2023-04-11T03:16:20.544Z,16.10
2023-04-11T03:18:48.951Z,16.60
2023-04-11T03:21:17.416Z,15.27
2023-04-11T03:23:45.582Z,13.33
2023-04-11T03:26:15.032Z,14.63
2023-04-11T03:28:43.032Z,15.47
2023-04-11T03:31:11.896Z,18.33
2023-04-11T03:33:40.330Z,15.37
2023-04-11T03:36:09.903Z,17.57
2023-04-11T03:38:37.966Z,16.33
2023-04-11T03:41:07.576Z,19.47
2023-04-11T03:43:37.192Z,15.47
2023-04-11T03:46:05.792Z,15.23
2023-04-11T03:48:33.898Z,17.67
2023-04-11T03:51:01.984Z,19.37
2023-04-11T03:53:30.007Z,16.43
2023-04-11T03:55:57.972Z,18.60
2023-04-11T03:58:26.889Z,16.67
2023-04-11T04:00:56.784Z,19.20
2023-04-11T04:03:25.218Z,16.60
2023-04-11T04:05:53.582Z,18.80
2023-04-11T04:08:21.716Z,16.70
2023-04-11T04:10:49.669Z,18.50
2023-04-11T04:13:17.846Z,19.87
2023-04-11T04:15:45.742Z,19.10
2023-04-11T04:18:15.401Z,17.93
2023-04-11T04:20:43.472Z,16.40
2023-04-11T04:23:14.032Z,17.50
2023-04-11T04:25:42.298Z,17.27
2023-04-11T04:28:10.800Z,18.60
2023-04-11T04:30:39.199Z,19.13
2023-04-11T04:33:12.544Z,19.07
2023-04-11T04:35:42.469Z,17.17
2023-04-11T04:38:18.228Z,19.30
2023-04-11T04:40:46.854Z,18.63
2023-04-11T04:43:18.940Z,19.70
2023-04-11T04:45:46.942Z,18.63
2023-04-11T04:48:15.233Z,16.37
2023-04-11T04:50:45.933Z,19.60
2023-04-11T04:53:13.987Z,17.87
2023-04-11T04:55:42.462Z,21.33
2023-04-11T04:58:10.544Z,18.47
2023-04-11T05:00:38.446Z,21.30
2023-04-11T05:03:08.661Z,19.87
2023-04-11T05:05:37.025Z,21.20
2023-04-11T05:08:06.721Z,19.43
2023-04-11T05:10:35.060Z,18.83
2023-04-11T05:13:03.419Z,19.60
2023-04-11T05:15:31.423Z,17.80
2023-04-11T05:17:59.446Z,21.83
2023-04-11T05:20:29.903Z,19.63
2023-04-11T05:22:58.163Z,20.53
2023-04-11T05:25:28.374Z,19.70
2023-04-11T05:27:57.729Z,20.47
2023-04-11T05:30:26.225Z,22.83
2023-04-11T05:32:54.585Z,19.33
2023-04-11T05:35:22.940Z,20.13
2023-04-11T05:37:51.053Z,20.03
2023-04-11T05:40:19.583Z,19.77
2023-04-11T05:42:50.294Z,17.70
2023-04-11T05:45:18.478Z,19.53
2023-04-11T05:47:46.842Z,19.00
2023-04-11T05:50:15.951Z,18.00
2023-04-11T05:52:46.324Z,19.30
2023-04-11T05:55:14.365Z,20.90
2023-04-11T05:57:42.420Z,18.63
2023-04-11T06:00:14.828Z,21.63
2023-04-11T06:02:43.565Z,17.97
2023-04-11T06:05:12.675Z,18.00
2023-04-11T06:07:41.995Z,20.00
2023-04-11T06:10:11.094Z,17.27
2023-04-11T06:12:39.069Z,16.63
2023-04-11T06:15:09.776Z,16.03
2023-04-11T06:17:40.667Z,18.37
2023-04-11T06:20:10.782Z,15.87
2023-04-11T06:22:40.378Z,14.90
2023-04-11T06:25:09.617Z,14.93
2023-04-11T06:27:38.095Z,14.37
2023-04-11T06:30:07.520Z,14.07
2023-04-11T06:32:35.567Z,14.80
2023-04-11T06:35:06.200Z,14.27
2023-04-11T06:37:34.811Z,16.37
2023-04-11T06:40:05.514Z,14.87
2023-04-11T06:42:33.787Z,13.47
2023-04-11T06:45:02.546Z,12.50
2023-04-11T06:47:31.962Z,12.60
2023-04-11T06:49:59.978Z,16.43
2023-04-11T06:52:30.380Z,15.87
2023-04-11T06:54:58.546Z,13.67
2023-04-11T06:57:27.045Z,17.07
2023-04-11T06:59:56.321Z,14.10
2023-04-11T07:02:25.910Z,12.43
2023-04-11T07:04:54.564Z,14.63
2023-04-11T07:07:22.562Z,12.80
2023-04-11T07:09:52.142Z,12.33
2023-04-11T07:12:20.158Z,12.80
2023-04-11T07:14:50.899Z,12.27
2023-04-11T07:17:18.834Z,10.53
2023-04-11T07:19:47.115Z,15.37
2023-04-11T07:22:15.053Z,14.80
2023-04-11T07:24:43.655Z,11.67
2023-04-11T07:27:14.711Z,9.60
2023-04-11T07:29:43.554Z,16.67
2023-04-11T07:32:11.555Z,11.63
2023-04-11T07:34:40.743Z,10.63
2023-04-11T07:37:08.766Z,12.20
2023-04-11T07:39:36.957Z,14.53
2023-04-11T07:42:05.121Z,14.53
2023-04-11T07:44:34.599Z,11.53
2023-04-11T07:47:03.141Z,11.00
2023-04-11T07:49:31.565Z,12.90
2023-04-11T07:51:59.705Z,10.63
2023-04-11T07:54:28.612Z,14.20
2023-04-11T07:56:57.191Z,9.73
2023-04-11T07:59:25.433Z,10.00
2023-04-11T08:02:02.210Z,9.57
2023-04-11T08:04:32.752Z,10.43
2023-04-11T08:07:01.122Z,15.03
2023-04-11T08:09:29.301Z,14.73
2023-04-11T08:11:58.610Z,8.30
2023-04-11T08:14:26.801Z,9.40
2023-04-11T08:16:55.578Z,10.30
2023-04-11T08:19:25.139Z,10.27
2023-04-11T08:21:53.275Z,9.87
2023-04-11T08:24:21.862Z,8.33
2023-04-11T08:26:50.918Z,8.67
2023-04-11T08:29:19.961Z,9.20
2023-04-11T08:31:48.231Z,9.77
2023-04-11T08:34:16.946Z,9.07
2023-04-11T08:36:47.739Z,9.93
2023-04-11T08:39:15.682Z,8.77
2023-04-11T08:41:44.471Z,8.90
2023-04-11T08:44:13.263Z,8.07
2023-04-11T08:46:44.322Z,8.00
2023-04-11T08:49:12.507Z,8.23
2023-04-11T08:51:44.926Z,6.83
2023-04-11T08:54:16.716Z,12.67
2023-04-11T08:56:45.017Z,7.37
2023-04-11T08:59:13.259Z,9.37
2023-04-11T09:01:41.555Z,8.00
2023-04-11T09:04:12.389Z,6.70
2023-04-11T09:06:42.838Z,7.40
2023-04-11T09:09:31.576Z,7.30
2023-04-11T09:11:59.999Z,6.73
2023-04-11T09:14:28.377Z,10.20
2023-04-11T09:16:58.797Z,11.53
2023-04-11T09:19:27.690Z,9.03
2023-04-11T09:21:56.886Z,8.07
2023-04-11T09:24:26.506Z,7.70
2023-04-11T09:27:10.030Z,7.63
2023-04-11T09:29:42.245Z,7.17
2023-04-11T09:32:31.660Z,7.83
2023-04-11T09:35:11.208Z,9.80
2023-04-11T09:37:46.973Z,9.33
2023-04-11T09:40:19.260Z,8.50
2023-04-11T09:42:50.637Z,7.60
2023-04-11T09:45:20.663Z,8.13
2023-04-11T09:47:51.307Z,7.47
2023-04-11T09:50:20.253Z,11.63
2023-04-11T09:52:48.611Z,9.37
2023-04-11T09:55:19.569Z,8.73
2023-04-11T09:57:53.333Z,10.17
2023-04-11T10:00:24.329Z,9.43
2023-04-11T10:02:54.149Z,9.83
2023-04-11T10:05:27.750Z,8.57
2023-04-11T10:08:01.932Z,12.23
2023-04-11T10:10:31.115Z,9.07
2023-04-11T10:13:03.569Z,10.53
2023-04-11T10:15:31.731Z,8.97
2023-04-11T10:18:10.637Z,9.87
2023-04-11T10:20:44.018Z,9.47
2023-04-11T10:23:13.068Z,7.97
2023-04-11T10:25:52.292Z,6.07
2023-04-11T10:28:48.513Z,9.40
2023-04-11T10:31:19.909Z,6.47
2023-04-11T10:34:15.662Z,9.13
2023-04-11T10:37:05.090Z,6.87
2023-04-11T10:40:10.403Z,8.67
2023-04-11T10:42:40.835Z,9.00
2023-04-11T10:45:18.455Z,8.37
2023-04-11T10:48:05.977Z,8.77
2023-04-11T10:50:37.059Z,6.63
2023-04-11T10:53:07.683Z,8.07
2023-04-11T10:55:49.637Z,7.27
2023-04-11T10:58:19.863Z,7.20
2023-04-11T11:01:31.876Z,6.80
2023-04-11T11:04:07.059Z,8.17
2023-04-11T11:06:46.058Z,7.33
2023-04-11T11:09:23.461Z,7.33
2023-04-11T11:12:07.613Z,8.03
2023-04-11T11:14:35.796Z,6.60
2023-04-11T11:17:04.243Z,6.77
2023-04-11T11:19:36.321Z,5.63
2023-04-11T11:22:06.471Z,5.37
2023-04-11T11:24:34.368Z,7.30
2023-04-11T11:27:02.562Z,8.33
2023-04-11T11:29:36.105Z,9.07
2023-04-11T11:32:04.754Z,6.43
2023-04-11T11:34:36.222Z,10.77
2023-04-11T11:37:05.777Z,7.53
2023-04-11T11:39:34.289Z,6.90
2023-04-11T11:42:03.485Z,6.50
2023-04-11T11:44:32.755Z,7.23
2023-04-11T11:47:04.534Z,8.43
2023-04-11T11:49:47.168Z,6.67
2023-04-11T11:52:33.058Z,8.00
2023-04-11T11:55:03.781Z,7.30
2023-04-11T11:57:31.997Z,10.87
2023-04-11T12:00:05.478Z,7.17
2023-04-11T12:02:36.413Z,7.93
2023-04-11T12:05:07.376Z,9.07
2023-04-11T12:07:38.709Z,7.50
2023-04-11T12:10:09.609Z,7.53
2023-04-11T12:12:39.090Z,7.90
2023-04-11T12:15:12.470Z,6.83
2023-04-11T12:17:41.161Z,7.40
2023-04-11T12:20:12.102Z,6.47
2023-04-11T12:22:40.434Z,7.20
2023-04-11T12:25:09.972Z,9.93
2023-04-11T12:27:38.809Z,6.93
2023-04-11T12:30:08.149Z,6.80
2023-04-11T12:32:36.793Z,6.23
2023-04-11T12:35:08.000Z,6.03
2023-04-11T12:37:37.459Z,7.27
2023-04-11T12:40:11.093Z,6.27
2023-04-11T12:42:49.554Z,8.50
2023-04-11T12:45:24.732Z,7.73
2023-04-11T12:47:56.162Z,7.50
2023-04-11T12:50:24.904Z,6.03
2023-04-11T12:52:55.592Z,6.17
2023-04-11T12:55:24.559Z,7.40
2023-04-11T12:57:52.715Z,6.67
2023-04-11T13:00:21.328Z,6.40
2023-04-11T13:02:49.745Z,6.20
2023-04-11T13:05:18.273Z,5.60
2023-04-11T13:07:46.760Z,8.10
2023-04-11T13:10:16.923Z,9.40
2023-04-11T13:12:46.725Z,5.83
2023-04-11T13:15:15.665Z,5.63
2023-04-11T13:17:44.455Z,6.90
2023-04-11T13:20:13.945Z,6.03
2023-04-11T13:22:43.088Z,6.10
2023-04-11T13:25:12.612Z,10.80
2023-04-11T13:27:42.850Z,8.20
2023-04-11T13:30:12.071Z,6.40
2023-04-11T13:32:40.754Z,5.63
2023-04-11T13:35:10.372Z,6.27
2023-04-11T13:37:38.429Z,6.60
2023-04-11T13:40:08.822Z,7.37
2023-04-11T13:42:36.846Z,7.57
2023-04-11T13:45:07.437Z,5.97
2023-04-11T13:47:38.228Z,6.10
2023-04-11T13:50:09.603Z,7.80
2023-04-11T13:52:37.928Z,8.43
2023-04-11T13:55:07.225Z,7.70
2023-04-11T13:57:35.438Z,14.33
2023-04-11T14:00:11.328Z,8.47
2023-04-11T14:02:41.382Z,8.30
2023-04-11T14:05:10.797Z,8.87
2023-04-11T14:07:39.256Z,7.97
2023-04-11T14:10:08.185Z,6.10
2023-04-11T14:12:36.718Z,7.20
2023-04-11T14:15:06.101Z,8.13
2023-04-11T14:17:34.443Z,7.30
2023-04-11T14:20:06.920Z,8.17
2023-04-11T14:22:35.201Z,9.47
2023-04-11T14:25:03.064Z,8.90
2023-04-11T14:27:31.053Z,7.60
2023-04-11T14:29:59.223Z,10.10
2023-04-11T14:32:27.323Z,8.60
2023-04-11T14:34:56.144Z,9.20
2023-04-11T14:37:25.887Z,8.63
2023-04-11T14:39:53.852Z,10.37
2023-04-11T14:42:23.051Z,9.00
2023-04-11T14:44:51.896Z,7.60
2023-04-11T14:47:20.389Z,8.93
2023-04-11T14:49:48.313Z,7.27
2023-04-11T14:52:16.483Z,8.20
2023-04-11T14:54:45.798Z,8.60
2023-04-11T14:57:13.895Z,10.20
2023-04-11T14:59:43.291Z,9.60
2023-04-11T15:02:12.061Z,13.13
2023-04-11T15:04:40.207Z,9.03
2023-04-11T15:07:08.943Z,8.37
2023-04-11T15:09:36.822Z,7.47
2023-04-11T15:12:06.912Z,9.37
2023-04-11T15:14:35.177Z,9.37
2023-04-11T15:17:03.089Z,8.87
2023-04-11T15:19:31.533Z,10.00
2023-04-11T15:21:59.692Z,9.73
2023-04-11T15:24:27.873Z,7.57
2023-04-11T15:26:56.824Z,9.57
2023-04-11T15:29:26.844Z,10.57
2023-04-11T15:31:54.799Z,8.73
2023-04-11T15:34:23.449Z,9.20
2023-04-11T15:36:51.680Z,9.20
2023-04-11T15:39:19.572Z,10.23
2023-04-11T15:41:47.702Z,10.53
2023-04-11T15:44:16.059Z,9.90
2023-04-11T15:46:47.235Z,9.63
2023-04-11T15:49:17.076Z,9.47
2023-04-11T15:51:46.088Z,12.40
2023-04-11T15:54:13.978Z,11.07
2023-04-11T15:56:42.322Z,10.00
2023-04-11T15:59:12.942Z,11.23
2023-04-11T16:01:41.791Z,8.70
2023-04-11T16:04:12.226Z,10.83
2023-04-11T16:06:40.477Z,10.40
2023-04-11T16:09:08.757Z,11.63
2023-04-11T16:11:38.744Z,11.53
2023-04-11T16:14:06.832Z,10.60
2023-04-11T16:16:35.076Z,10.03
2023-04-11T16:19:03.318Z,9.83
2023-04-11T16:21:32.648Z,10.60
2023-04-11T16:24:00.660Z,12.03
2023-04-11T16:26:29.047Z,13.50
2023-04-11T16:28:57.227Z,9.43
2023-04-11T16:31:25.620Z,10.87
2023-04-11T16:33:55.411Z,9.03
2023-04-11T16:36:23.683Z,8.30
2023-04-11T16:38:52.976Z,8.33
2023-04-11T16:41:21.397Z,9.37
2023-04-11T16:43:49.612Z,8.07
2023-04-11T16:46:17.656Z,9.67
2023-04-11T16:48:46.079Z,10.27
2023-04-11T16:51:14.448Z,10.70
2023-04-11T16:53:42.483Z,10.43
2023-04-11T16:56:12.556Z,10.73
2023-04-11T16:58:40.978Z,9.67
2023-04-11T17:01:10.281Z,10.40
2023-04-11T17:03:39.693Z,10.47
2023-04-11T17:06:13.541Z,11.03
2023-04-11T17:08:43.112Z,9.43
2023-04-11T17:11:12.787Z,12.80
2023-04-11T17:13:42.377Z,10.47
2023-04-11T17:16:10.718Z,12.27
2023-04-11T17:18:39.225Z,9.53
2023-04-11T17:21:07.852Z,9.87
2023-04-11T17:23:43.173Z,8.80
2023-04-11T17:26:13.173Z,10.03
2023-04-11T17:28:42.583Z,10.77
2023-04-11T17:31:14.627Z,9.67
2023-04-11T17:33:44.087Z,9.53
2023-04-11T17:36:13.621Z,12.40
2023-04-11T17:38:43.526Z,10.70
2023-04-11T17:41:15.452Z,9.73
2023-04-11T17:43:43.902Z,10.47
2023-04-11T17:46:12.878Z,11.80
2023-04-11T17:48:40.985Z,10.20
2023-04-11T17:51:10.469Z,12.43
2023-04-11T17:53:38.476Z,10.33
2023-04-11T17:56:09.686Z,11.97
2023-04-11T17:58:42.615Z,10.87
2023-04-11T18:01:11.753Z,9.73
2023-04-11T18:03:41.490Z,11.47
2023-04-11T18:06:09.916Z,11.90
2023-04-11T18:08:50.534Z,10.40
2023-04-11T18:11:19.384Z,12.40
2023-04-11T18:13:50.527Z,10.00
2023-04-11T18:16:18.984Z,11.70
2023-04-11T18:18:48.402Z,10.50
2023-04-11T18:21:17.713Z,13.23
2023-04-11T18:23:45.972Z,11.03
2023-04-11T18:26:14.121Z,10.47
2023-04-11T18:28:42.281Z,12.20
2023-04-11T18:31:12.044Z,10.83
2023-04-11T18:33:43.414Z,11.60
2023-04-11T18:36:13.146Z,10.60
2023-04-11T18:38:41.498Z,11.10
2023-04-11T18:41:09.702Z,9.63
2023-04-11T18:43:38.682Z,10.70
2023-04-11T18:46:09.748Z,9.27
2023-04-11T18:48:39.375Z,8.70
2023-04-11T18:51:08.949Z,9.33
2023-04-11T18:53:37.012Z,11.67
2023-04-11T18:56:05.487Z,10.10
2023-04-11T18:58:35.172Z,10.20
2023-04-11T19:01:14.806Z,10.03
2023-04-11T19:03:46.371Z,9.93
2023-04-11T19:06:15.121Z,9.33
2023-04-11T19:08:43.081Z,8.77
2023-04-11T19:11:11.179Z,8.00
2023-04-11T19:13:39.657Z,9.83
2023-04-11T19:16:08.244Z,8.93
2023-04-11T19:18:36.495Z,8.80
2023-04-11T19:21:07.982Z,10.50
2023-04-11T19:23:37.849Z,8.80
2023-04-11T19:26:06.353Z,11.07
2023-04-11T19:28:34.610Z,8.87
2023-04-11T19:31:02.928Z,7.87
2023-04-11T19:33:31.578Z,10.13
2023-04-11T19:35:59.596Z,9.97
2023-04-11T19:38:29.260Z,9.93
2023-04-11T19:40:57.196Z,9.27
2023-04-11T19:43:25.169Z,9.00
2023-04-11T19:45:55.151Z,8.10
2023-04-11T19:48:23.307Z,10.47
2023-04-11T19:50:53.636Z,11.13
2023-04-11T19:53:22.088Z,10.57
2023-04-11T19:55:56.719Z,10.30
2023-04-11T19:58:24.797Z,8.80
2023-04-11T20:00:53.381Z,9.90
2023-04-11T20:03:21.962Z,8.73
2023-04-11T20:05:50.380Z,10.90
2023-04-11T20:08:19.243Z,8.10
2023-04-11T20:10:47.117Z,9.17
2023-04-11T20:13:17.328Z,7.73
2023-04-11T20:15:53.925Z,9.77
2023-04-11T20:18:21.913Z,8.43
2023-04-11T20:20:50.083Z,7.73
2023-04-11T20:23:18.324Z,10.33
2023-04-11T20:25:46.529Z,8.07
2023-04-11T20:28:15.036Z,11.37
2023-04-11T20:30:44.761Z,9.40
2023-04-11T20:33:13.174Z,7.47
2023-04-11T20:35:41.214Z,8.17
2023-04-11T20:38:09.582Z,8.00
2023-04-11T20:40:38.869Z,7.07
2023-04-11T20:43:06.829Z,7.10
2023-04-11T20:45:36.360Z,7.30
2023-04-11T20:48:09.138Z,7.63
2023-04-11T20:50:37.805Z,7.73
2023-04-11T20:53:05.991Z,7.07
2023-04-11T20:55:34.596Z,7.70
2023-04-11T20:58:04.009Z,8.17
2023-04-11T21:00:32.286Z,7.87
2023-04-11T21:03:00.516Z,9.03
2023-04-11T21:05:32.908Z,7.83
2023-04-11T21:08:02.355Z,9.47
2023-04-11T21:10:30.716Z,6.57
2023-04-11T21:12:58.855Z,6.50
2023-04-11T21:15:26.853Z,8.67
2023-04-11T21:17:54.872Z,8.03
2023-04-11T21:20:23.418Z,7.93
2023-04-11T21:22:54.672Z,9.20
2023-04-11T21:25:23.467Z,8.63
2023-04-11T21:27:51.577Z,7.67
2023-04-11T21:30:20.277Z,7.53
2023-04-11T21:32:49.212Z,6.97
2023-04-11T21:35:17.669Z,10.53
2023-04-11T21:37:48.489Z,8.93
2023-04-11T21:40:18.922Z,7.30
2023-04-11T21:42:47.004Z,8.67
2023-04-11T21:45:15.049Z,8.40
2023-04-11T21:47:43.154Z,7.67
2023-04-11T21:50:12.359Z,8.70
2023-04-11T21:52:40.975Z,9.10
2023-04-11T21:55:09.927Z,11.27
2023-04-11T21:57:39.888Z,8.83
2023-04-11T22:00:11.168Z,8.00
2023-04-11T22:02:39.853Z,8.17
2023-04-11T22:05:10.022Z,7.57
2023-04-11T22:07:47.615Z,9.57
2023-04-11T22:10:16.061Z,8.27
2023-04-11T22:12:47.539Z,8.97
2023-04-11T22:15:18.496Z,7.70
2023-04-11T22:17:51.266Z,8.20
2023-04-11T22:20:20.059Z,7.37
2023-04-11T22:22:48.360Z,8.23
2023-04-11T22:25:18.601Z,8.47
2023-04-11T22:27:47.982Z,10.47
2023-04-11T22:30:17.851Z,10.20
2023-04-11T22:32:47.254Z,9.03
2023-04-11T22:35:15.845Z,9.00
2023-04-11T22:37:44.982Z,8.47
2023-04-11T22:40:15.064Z,9.40
2023-04-11T22:42:43.315Z,9.03
2023-04-11T22:45:15.641Z,8.47
2023-04-11T22:47:46.230Z,9.03
2023-04-11T22:50:15.720Z,8.17
2023-04-11T22:52:43.930Z,8.17
2023-04-11T22:55:12.478Z,8.93
2023-04-11T22:57:41.032Z,8.33
2023-04-11T23:00:12.829Z,8.50
2023-04-11T23:02:42.533Z,10.80
2023-04-11T23:05:11.368Z,8.67
2023-04-11T23:07:39.440Z,9.43
2023-04-11T23:10:10.606Z,7.83
2023-04-11T23:12:40.494Z,10.83
2023-04-11T23:15:09.656Z,10.97
2023-04-11T23:17:40.202Z,10.50
2023-04-11T23:20:13.966Z,8.40
2023-04-11T23:22:43.938Z,9.80
2023-04-11T23:25:12.788Z,9.10
2023-04-11T23:27:41.257Z,9.70
2023-04-11T23:30:11.938Z,9.63
2023-04-11T23:32:41.673Z,10.23
2023-04-11T23:35:13.080Z,9.47
2023-04-11T23:37:41.464Z,10.13
2023-04-11T23:40:14.065Z,9.43
2023-04-11T23:42:42.869Z,9.47
2023-04-11T23:45:12.819Z,10.30
2023-04-11T23:47:40.869Z,11.37
2023-04-11T23:50:12.269Z,10.03
2023-04-11T23:52:40.618Z,9.60
2023-04-11T23:55:10.752Z,8.37
2023-04-11T23:57:38.956Z,9.70
